Sedona, AZ (86336)

1:44 AM MST on December 29, 2014 (GMT -0700)
Northview | Change Station
CLOSE
Current Station
Personal Weather Station
Location: Sedona, AZ
Elevation: 4396 ft
Nearby Weather Stations

Elev 4396 ft 34.86 °N, 111.79 °W | Updated 2 seconds ago

Clear
Clear
27.3 °F
Feels Like 24 °F
N
3.1
Wind Variable Wind from SE
Gusts 4.5 mph

Today
High -- | Low -- °F
--% Chance of Precip.
Yesterday
High -- | Low -- °F
Precip. -- in
7:34 AM 5:24 PM
First Quarter, 57% visible
Pressure 30.09 in
Visibility 10.0 miles
Clouds Clear
Windchill 24 °F
Dew Point 13 °F
Humidity 55%
Rainfall 0.00 in
Snow Depth Not available.
UV 0 out of 12
Pollen 1.30 out of 12
Air Quality Not available.
Flu Activity Not available.
METAR KSEZ 290835Z AUTO 03005KT 10SM CLR 00/M09 A3009 RMK AO2

More Conditions Fewer Conditions

Pressure 30.09 in
Visibility 10.0 miles
Clouds Clear
Windchill 24 °F
Dew Point 13 °F
Humidity 55%
Rainfall 0.00 in
Snow Depth Not available.
UV 0 out of 12
Pollen 1.30 out of 12
Air Quality Not available.
Flu Activity Not available.
METAR KSEZ 290835Z AUTO 03005KT 10SM CLR 00/M09 A3009 RMK AO2

More Conditions Fewer Conditions

10-Day Weather Forecast

Almanac

Astronomy

Dec. 29, 2014 Rise Set
Actual Time
Civil Twilight
Nautical Twilight
Astronomical Twilight
Moon
Length of Visible Light
Length of Day
Tomorrow will be .
, % of the Moon is Illuminated

Today's Extremes

State Highs State Lows

Community

WunderPhotos

Upload Photos

1,781,558 photos uploaded!

WunderBlogs® & News

Nearby

Air Quality

  Air Quality AQ Index Pollutant
Not available.

Snow Depth

Station Depth Elevation

Earthquake Activity

City Distance Mag. Time & Date
Minimum magnitude displayed is 2.5.

Coastal Water Temperatures

Place Temperature

Nearby Weather Stations